sensor_id;sensor_type;location;lat;lon;timestamp;pressure;altitude;pressure_sealevel;temperature;humidity
34177;BME280;20450;49.074;9.158;2023-10-19T00:02:25;98142.69;;;11.92;99.85
34177;BME280;20450;49.074;9.158;2023-10-19T00:04:52;98139.66;;;11.88;99.68
34177;BME280;20450;49.074;9.158;2023-10-19T00:07:24;98148.59;;;11.88;99.43
34177;BME280;20450;49.074;9.158;2023-10-19T00:09:55;98137.69;;;11.78;99.78
34177;BME280;20450;49.074;9.158;2023-10-19T00:12:22;98132.84;;;11.80;100.00
34177;BME280;20450;49.074;9.158;2023-10-19T00:14:49;98125.44;;;11.71;100.00
34177;BME280;20450;49.074;9.158;2023-10-19T00:17:15;98128.72;;;11.73;100.00
34177;BME280;20450;49.074;9.158;2023-10-19T00:19:43;98131.22;;;11.79;100.00
34177;BME280;20450;49.074;9.158;2023-10-19T00:22:10;98131.75;;;11.81;100.00
34177;BME280;20450;49.074;9.158;2023-10-19T00:24:39;98117.38;;;11.76;100.00
34177;BME280;20450;49.074;9.158;2023-10-19T00:27:06;98123.63;;;11.76;100.00
34177;BME280;20450;49.074;9.158;2023-10-19T00:29:33;98130.13;;;11.80;100.00
34177;BME280;20450;49.074;9.158;2023-10-19T00:32:00;98130.13;;;11.80;100.00
34177;BME280;20450;49.074;9.158;2023-10-19T00:34:27;98129.94;;;11.87;100.00
34177;BME280;20450;49.074;9.158;2023-10-19T00:36:57;98126.19;;;11.98;100.00
34177;BME280;20450;49.074;9.158;2023-10-19T00:39:24;98131.44;;;12.10;100.00
34177;BME280;20450;49.074;9.158;2023-10-19T00:41:54;98130.78;;;11.93;100.00
34177;BME280;20450;49.074;9.158;2023-10-19T00:44:21;98127.38;;;11.75;100.00
34177;BME280;20450;49.074;9.158;2023-10-19T00:46:48;98123.38;;;11.78;100.00
34177;BME280;20450;49.074;9.158;2023-10-19T00:49:15;98117.66;;;11.74;100.00
34177;BME280;20450;49.074;9.158;2023-10-19T00:51:45;98116.03;;;11.73;100.00
34177;BME280;20450;49.074;9.158;2023-10-19T00:54:17;98107.66;;;11.75;100.00
34177;BME280;20450;49.074;9.158;2023-10-19T00:56:47;98100.59;;;11.74;100.00
34177;BME280;20450;49.074;9.158;2023-10-19T00:59:18;98114.94;;;11.74;100.00
34177;BME280;20450;49.074;9.158;2023-10-19T01:01:50;98098.72;;;11.74;100.00
34177;BME280;20450;49.074;9.158;2023-10-19T01:04:19;98103.38;;;11.84;100.00
34177;BME280;20450;49.074;9.158;2023-10-19T01:06:46;98109.06;;;11.87;100.00
34177;BME280;20450;49.074;9.158;2023-10-19T01:09:13;98094.50;;;11.93;100.00
34177;BME280;20450;49.074;9.158;2023-10-19T01:11:43;98102.94;;;11.97;100.00
34177;BME280;20450;49.074;9.158;2023-10-19T01:14:21;98107.88;;;12.10;100.00
34177;BME280;20450;49.074;9.158;2023-10-19T01:16:49;98095.75;;;12.18;100.00
34177;BME280;20450;49.074;9.158;2023-10-19T01:19:16;98095.53;;;12.29;100.00
34177;BME280;20450;49.074;9.158;2023-10-19T01:21:44;98090.19;;;12.39;100.00
34177;BME280;20450;49.074;9.158;2023-10-19T01:24:13;98078.19;;;12.25;100.00
34177;BME280;20450;49.074;9.158;2023-10-19T01:26:41;98078.13;;;12.15;100.00
34177;BME280;20450;49.074;9.158;2023-10-19T01:29:08;98076.25;;;12.21;100.00
34177;BME280;20450;49.074;9.158;2023-10-19T01:31:35;98076.84;;;12.28;100.00
34177;BME280;20450;49.074;9.158;2023-10-19T01:34:02;98073.38;;;12.37;100.00
34177;BME280;20450;49.074;9.158;2023-10-19T01:36:29;98071.72;;;12.31;100.00
34177;BME280;20450;49.074;9.158;2023-10-19T01:38:57;98063.56;;;12.21;100.00
34177;BME280;20450;49.074;9.158;2023-10-19T01:41:27;98061.44;;;12.33;100.00
34177;BME280;20450;49.074;9.158;2023-10-19T01:43:55;98055.78;;;12.35;100.00
34177;BME280;20450;49.074;9.158;2023-10-19T01:46:23;98050.91;;;12.42;100.00
34177;BME280;20450;49.074;9.158;2023-10-19T01:48:52;98048.25;;;12.47;100.00
34177;BME280;20450;49.074;9.158;2023-10-19T01:51:20;98050.38;;;12.45;100.00
34177;BME280;20450;49.074;9.158;2023-10-19T01:53:49;98034.97;;;12.50;100.00
34177;BME280;20450;49.074;9.158;2023-10-19T01:56:17;98040.69;;;12.59;100.00
34177;BME280;20450;49.074;9.158;2023-10-19T01:58:47;98038.50;;;12.61;100.00
34177;BME280;20450;49.074;9.158;2023-10-19T02:01:16;98042.03;;;12.61;100.00
34177;BME280;20450;49.074;9.158;2023-10-19T02:03:43;98037.44;;;12.67;100.00
34177;BME280;20450;49.074;9.158;2023-10-19T02:06:13;98034.50;;;12.73;100.00
34177;BME280;20450;49.074;9.158;2023-10-19T02:08:41;98038.56;;;12.86;100.00
34177;BME280;20450;49.074;9.158;2023-10-19T02:11:08;98033.44;;;12.79;100.00
34177;BME280;20450;49.074;9.158;2023-10-19T02:13:35;98036.13;;;12.84;100.00
34177;BME280;20450;49.074;9.158;2023-10-19T02:16:04;98036.13;;;12.84;100.00
34177;BME280;20450;49.074;9.158;2023-10-19T02:18:31;98035.38;;;12.99;100.00
34177;BME280;20450;49.074;9.158;2023-10-19T02:20:58;98027.78;;;13.01;100.00
34177;BME280;20450;49.074;9.158;2023-10-19T02:23:25;98024.00;;;13.02;100.00
34177;BME280;20450;49.074;9.158;2023-10-19T02:25:52;98021.56;;;13.10;100.00
34177;BME280;20450;49.074;9.158;2023-10-19T02:28:19;98021.81;;;12.99;100.00
34177;BME280;20450;49.074;9.158;2023-10-19T02:30:46;98015.56;;;12.88;100.00
34177;BME280;20450;49.074;9.158;2023-10-19T02:33:15;98006.34;;;12.89;100.00
34177;BME280;20450;49.074;9.158;2023-10-19T02:35:42;97996.84;;;12.92;100.00
34177;BME280;20450;49.074;9.158;2023-10-19T02:38:10;97991.75;;;13.05;100.00
34177;BME280;20450;49.074;9.158;2023-10-19T02:40:37;97991.22;;;13.13;100.00
34177;BME280;20450;49.074;9.158;2023-10-19T02:43:04;97994.19;;;13.22;100.00
34177;BME280;20450;49.074;9.158;2023-10-19T02:45:31;97993.94;;;13.28;100.00
34177;BME280;20450;49.074;9.158;2023-10-19T02:47:58;97990.38;;;13.28;100.00
34177;BME280;20450;49.074;9.158;2023-10-19T02:50:27;97980.88;;;12.95;100.00
34177;BME280;20450;49.074;9.158;2023-10-19T02:52:54;97974.06;;;12.83;100.00
34177;BME280;20450;49.074;9.158;2023-10-19T02:55:21;97972.97;;;12.74;100.00
34177;BME280;20450;49.074;9.158;2023-10-19T02:57:48;97967.81;;;12.72;100.00
34177;BME280;20450;49.074;9.158;2023-10-19T03:00:15;97959.16;;;12.55;100.00
34177;BME280;20450;49.074;9.158;2023-10-19T03:02:44;97951.81;;;12.51;100.00
34177;BME280;20450;49.074;9.158;2023-10-19T03:05:11;97948.59;;;12.54;100.00
34177;BME280;20450;49.074;9.158;2023-10-19T03:07:39;97947.50;;;12.70;100.00
34177;BME280;20450;49.074;9.158;2023-10-19T03:10:07;97944.00;;;12.74;100.00
34177;BME280;20450;49.074;9.158;2023-10-19T03:12:36;97939.13;;;12.76;100.00
34177;BME280;20450;49.074;9.158;2023-10-19T03:15:04;97942.63;;;12.77;100.00
34177;BME280;20450;49.074;9.158;2023-10-19T03:17:31;97941.84;;;12.86;100.00
34177;BME280;20450;49.074;9.158;2023-10-19T03:19:59;97944.28;;;12.93;100.00
34177;BME280;20450;49.074;9.158;2023-10-19T03:22:26;97942.94;;;12.85;100.00
34177;BME280;20450;49.074;9.158;2023-10-19T03:24:54;97941.31;;;12.89;100.00
34177;BME280;20450;49.074;9.158;2023-10-19T03:27:21;97938.91;;;13.03;100.00
34177;BME280;20450;49.074;9.158;2023-10-19T03:29:50;97935.09;;;13.09;100.00
34177;BME280;20450;49.074;9.158;2023-10-19T03:32:18;97940.50;;;13.14;100.00
34177;BME280;20450;49.074;9.158;2023-10-19T03:34:45;97938.88;;;13.13;100.00
34177;BME280;20450;49.074;9.158;2023-10-19T03:37:12;97930.47;;;13.14;100.00
34177;BME280;20450;49.074;9.158;2023-10-19T03:39:39;97929.66;;;13.24;100.00
34177;BME280;20450;49.074;9.158;2023-10-19T03:42:08;97932.91;;;13.26;100.00
34177;BME280;20450;49.074;9.158;2023-10-19T03:44:36;97935.88;;;13.29;100.00
34177;BME280;20450;49.074;9.158;2023-10-19T03:47:04;97925.00;;;13.39;100.00
34177;BME280;20450;49.074;9.158;2023-10-19T03:49:31;97919.31;;;13.51;100.00
34177;BME280;20450;49.074;9.158;2023-10-19T03:51:58;97915.75;;;13.55;100.00
34177;BME280;20450;49.074;9.158;2023-10-19T03:54:25;97917.63;;;13.60;100.00
34177;BME280;20450;49.074;9.158;2023-10-19T03:56:53;97918.44;;;13.60;100.00
34177;BME280;20450;49.074;9.158;2023-10-19T03:59:22;97914.13;;;13.59;100.00
34177;BME280;20450;49.074;9.158;2023-10-19T04:01:49;97910.59;;;13.59;100.00
34177;BME280;20450;49.074;9.158;2023-10-19T04:04:16;97912.75;;;13.62;100.00
34177;BME280;20450;49.074;9.158;2023-10-19T04:06:43;97906.50;;;13.61;100.00
34177;BME280;20450;49.074;9.158;2023-10-19T04:09:10;97916.00;;;13.64;100.00
34177;BME280;20450;49.074;9.158;2023-10-19T04:11:37;97913.56;;;13.62;100.00
34177;BME280;20450;49.074;9.158;2023-10-19T04:14:04;97907.06;;;13.63;100.00
34177;BME280;20450;49.074;9.158;2023-10-19T04:16:32;97899.19;;;13.62;100.00
34177;BME280;20450;49.074;9.158;2023-10-19T04:18:59;97898.63;;;13.60;100.00
34177;BME280;20450;49.074;9.158;2023-10-19T04:21:26;97909.75;;;13.58;100.00
34177;BME280;20450;49.074;9.158;2023-10-19T04:23:53;97900.56;;;13.54;100.00
34177;BME280;20450;49.074;9.158;2023-10-19T04:26:20;97892.16;;;13.56;100.00
34177;BME280;20450;49.074;9.158;2023-10-19T04:28:47;97891.88;;;13.57;100.00
34177;BME280;20450;49.074;9.158;2023-10-19T04:31:14;97891.06;;;13.57;100.00
34177;BME280;20450;49.074;9.158;2023-10-19T04:33:44;97889.16;;;13.57;100.00
34177;BME280;20450;49.074;9.158;2023-10-19T04:36:13;97882.41;;;13.55;100.00
34177;BME280;20450;49.074;9.158;2023-10-19T04:38:41;97879.13;;;13.53;100.00
34177;BME280;20450;49.074;9.158;2023-10-19T04:41:09;97880.78;;;13.49;100.00
34177;BME280;20450;49.074;9.158;2023-10-19T04:43:38;97887.59;;;13.46;100.00
34177;BME280;20450;49.074;9.158;2023-10-19T04:46:10;97877.00;;;13.45;100.00
34177;BME280;20450;49.074;9.158;2023-10-19T04:48:44;97879.44;;;13.46;100.00
34177;BME280;20450;49.074;9.158;2023-10-19T04:51:15;97884.06;;;13.46;100.00
34177;BME280;20450;49.074;9.158;2023-10-19T04:53:58;97878.34;;;13.42;100.00
34177;BME280;20450;49.074;9.158;2023-10-19T04:56:43;97877.03;;;13.40;100.00
34177;BME280;20450;49.074;9.158;2023-10-19T04:59:10;97874.56;;;13.38;100.00
34177;BME280;20450;49.074;9.158;2023-10-19T05:01:37;97879.72;;;13.40;100.00
34177;BME280;20450;49.074;9.158;2023-10-19T05:04:06;97874.31;;;13.40;100.00
34177;BME280;20450;49.074;9.158;2023-10-19T05:06:36;97875.41;;;13.39;100.00
34177;BME280;20450;49.074;9.158;2023-10-19T05:09:04;97875.69;;;13.27;100.00
34177;BME280;20450;49.074;9.158;2023-10-19T05:11:31;97869.19;;;13.23;100.00
34177;BME280;20450;49.074;9.158;2023-10-19T05:14:01;97872.97;;;13.27;100.00
34177;BME280;20450;49.074;9.158;2023-10-19T05:16:28;97869.19;;;13.28;100.00
34177;BME280;20450;49.074;9.158;2023-10-19T05:18:55;97864.03;;;13.27;100.00
34177;BME280;20450;49.074;9.158;2023-10-19T05:21:23;97868.66;;;13.21;100.00
34177;BME280;20450;49.074;9.158;2023-10-19T05:23:50;97864.88;;;13.02;100.00
34177;BME280;20450;49.074;9.158;2023-10-19T05:26:17;97871.09;;;13.08;100.00
34177;BME280;20450;49.074;9.158;2023-10-19T05:28:46;97868.97;;;13.05;100.00
34177;BME280;20450;49.074;9.158;2023-10-19T05:31:13;97871.66;;;12.75;100.00
34177;BME280;20450;49.074;9.158;2023-10-19T05:33:40;97876.81;;;12.76;100.00
34177;BME280;20450;49.074;9.158;2023-10-19T05:36:07;97879.22;;;12.83;100.00
34177;BME280;20450;49.074;9.158;2023-10-19T05:38:36;97875.44;;;12.94;100.00
34177;BME280;20450;49.074;9.158;2023-10-19T05:41:03;97868.94;;;12.80;100.00
34177;BME280;20450;49.074;9.158;2023-10-19T05:43:30;97872.75;;;12.79;100.00
34177;BME280;20450;49.074;9.158;2023-10-19T05:45:57;97880.88;;;12.84;100.00
34177;BME280;20450;49.074;9.158;2023-10-19T05:48:24;97878.16;;;12.84;100.00
34177;BME280;20450;49.074;9.158;2023-10-19T05:50:53;97880.84;;;12.89;100.00
34177;BME280;20450;49.074;9.158;2023-10-19T05:53:20;97882.22;;;12.96;100.00
34177;BME280;20450;49.074;9.158;2023-10-19T05:55:48;97879.25;;;12.93;100.00
34177;BME280;20450;49.074;9.158;2023-10-19T05:58:15;97885.75;;;12.77;100.00
34177;BME280;20450;49.074;9.158;2023-10-19T06:00:42;97881.94;;;12.68;100.00
34177;BME280;20450;49.074;9.158;2023-10-19T06:03:09;97883.59;;;12.69;100.00
34177;BME280;20450;49.074;9.158;2023-10-19T06:05:36;97885.47;;;12.68;100.00
34177;BME280;20450;49.074;9.158;2023-10-19T06:08:04;97888.72;;;12.80;100.00
34177;BME280;20450;49.074;9.158;2023-10-19T06:10:31;97880.31;;;12.97;100.00
34177;BME280;20450;49.074;9.158;2023-10-19T06:13:00;97887.09;;;12.89;99.03
34177;BME280;20450;49.074;9.158;2023-10-19T06:15:27;97898.25;;;13.03;100.00
34177;BME280;20450;49.074;9.158;2023-10-19T06:17:54;97884.13;;;13.06;100.00
34177;BME280;20450;49.074;9.158;2023-10-19T06:20:22;97887.34;;;12.98;99.72
34177;BME280;20450;49.074;9.158;2023-10-19T06:22:50;97893.06;;;12.96;99.28
34177;BME280;20450;49.074;9.158;2023-10-19T06:25:18;97894.16;;;13.10;99.48
34177;BME280;20450;49.074;9.158;2023-10-19T06:27:45;97897.13;;;13.14;99.64
34177;BME280;20450;49.074;9.158;2023-10-19T06:30:17;97898.22;;;13.18;99.08
34177;BME280;20450;49.074;9.158;2023-10-19T06:32:49;97890.88;;;13.23;99.57
34177;BME280;20450;49.074;9.158;2023-10-19T06:35:18;97885.69;;;13.32;99.63
34177;BME280;20450;49.074;9.158;2023-10-19T06:37:46;97894.63;;;13.42;99.34
34177;BME280;20450;49.074;9.158;2023-10-19T06:40:15;97886.22;;;13.49;99.32
34177;BME280;20450;49.074;9.158;2023-10-19T06:42:43;97881.84;;;13.58;99.00
34177;BME280;20450;49.074;9.158;2023-10-19T06:45:11;97879.09;;;13.63;98.93
34177;BME280;20450;49.074;9.158;2023-10-19T06:47:40;97873.38;;;13.69;99.04
34177;BME280;20450;49.074;9.158;2023-10-19T06:50:08;97875.75;;;13.86;99.18
34177;BME280;20450;49.074;9.158;2023-10-19T06:52:39;97875.69;;;13.96;98.40
34177;BME280;20450;49.074;9.158;2023-10-19T06:55:07;97868.59;;;14.05;98.08
34177;BME280;20450;49.074;9.158;2023-10-19T06:57:37;97869.44;;;14.01;96.79
34177;BME280;20450;49.074;9.158;2023-10-19T07:00:05;97872.38;;;14.09;97.00
34177;BME280;20450;49.074;9.158;2023-10-19T07:02:33;97870.19;;;14.16;96.20
34177;BME280;20450;49.074;9.158;2023-10-19T07:05:02;97864.41;;;14.23;96.15
34177;BME280;20450;49.074;9.158;2023-10-19T07:07:30;97863.03;;;14.30;96.00
34177;BME280;20450;49.074;9.158;2023-10-19T07:09:57;97869.47;;;14.44;95.44
34177;BME280;20450;49.074;9.158;2023-10-19T07:12:24;97870.22;;;14.55;95.34
34177;BME280;20450;49.074;9.158;2023-10-19T07:14:52;97876.38;;;14.65;94.49
34177;BME280;20450;49.074;9.158;2023-10-19T07:17:19;97871.44;;;14.72;94.16
34177;BME280;20450;49.074;9.158;2023-10-19T07:19:46;97873.28;;;14.82;93.84
34177;BME280;20450;49.074;9.158;2023-10-19T07:22:14;97872.97;;;14.83;92.94
34177;BME280;20450;49.074;9.158;2023-10-19T07:24:41;97872.41;;;14.86;92.53
34177;BME280;20450;49.074;9.158;2023-10-19T07:27:10;97866.41;;;14.89;92.23
34177;BME280;20450;49.074;9.158;2023-10-19T07:29:54;97867.78;;;14.87;91.42
34177;BME280;20450;49.074;9.158;2023-10-19T07:32:23;97870.19;;;14.88;91.51
34177;BME280;20450;49.074;9.158;2023-10-19T07:34:53;97866.41;;;14.89;91.48
34177;BME280;20450;49.074;9.158;2023-10-19T07:37:23;97877.78;;;14.91;91.58
34177;BME280;20450;49.074;9.158;2023-10-19T07:39:51;97875.91;;;14.92;91.02
34177;BME280;20450;49.074;9.158;2023-10-19T07:42:18;97876.09;;;14.95;90.93
34177;BME280;20450;49.074;9.158;2023-10-19T07:44:45;97881.22;;;15.02;91.12
34177;BME280;20450;49.074;9.158;2023-10-19T07:47:12;97878.53;;;14.97;90.66
34177;BME280;20450;49.074;9.158;2023-10-19T07:49:39;97875.50;;;15.03;90.94
34177;BME280;20450;49.074;9.158;2023-10-19T07:52:07;97873.78;;;15.12;90.97
34177;BME280;20450;49.074;9.158;2023-10-19T07:54:36;97875.31;;;15.23;90.85
34177;BME280;20450;49.074;9.158;2023-10-19T07:57:04;97866.53;;;15.31;90.70
34177;BME280;20450;49.074;9.158;2023-10-19T07:59:31;97866.75;;;15.40;89.90
34177;BME280;20450;49.074;9.158;2023-10-19T08:01:58;97865.94;;;15.39;89.00
34177;BME280;20450;49.074;9.158;2023-10-19T08:04:26;97862.34;;;15.44;88.95
34177;BME280;20450;49.074;9.158;2023-10-19T08:06:53;97870.69;;;15.52;89.80
34177;BME280;20450;49.074;9.158;2023-10-19T08:09:21;97854.16;;;15.67;88.99
34177;BME280;20450;49.074;9.158;2023-10-19T08:11:50;97849.38;;;15.83;88.88
34177;BME280;20450;49.074;9.158;2023-10-19T08:14:18;97838.03;;;15.95;87.68
34177;BME280;20450;49.074;9.158;2023-10-19T08:16:45;97836.47;;;16.07;87.06
34177;BME280;20450;49.074;9.158;2023-10-19T08:19:12;97834.59;;;16.26;87.04
34177;BME280;20450;49.074;9.158;2023-10-19T08:21:39;97834.59;;;16.45;86.61
34177;BME280;20450;49.074;9.158;2023-10-19T08:24:06;97834.06;;;16.61;85.81
34177;BME280;20450;49.074;9.158;2023-10-19T08:26:33;97850.91;;;16.82;85.04
34177;BME280;20450;49.074;9.158;2023-10-19T08:29:02;97843.66;;;16.91;83.73
34177;BME280;20450;49.074;9.158;2023-10-19T08:31:29;97844.03;;;17.30;82.85
34177;BME280;20450;49.074;9.158;2023-10-19T08:33:56;97838.13;;;17.82;80.20
34177;BME280;20450;49.074;9.158;2023-10-19T08:36:24;97838.41;;;18.08;78.84
34177;BME280;20450;49.074;9.158;2023-10-19T08:38:52;97841.78;;;18.84;79.80
34177;BME280;20450;49.074;9.158;2023-10-19T08:41:19;97841.34;;;19.43;75.85
34177;BME280;20450;49.074;9.158;2023-10-19T08:43:46;97842.03;;;19.97;73.04
34177;BME280;20450;49.074;9.158;2023-10-19T08:46:15;97836.16;;;20.20;71.64
34177;BME280;20450;49.074;9.158;2023-10-19T08:48:42;97825.53;;;20.44;70.36
34177;BME280;20450;49.074;9.158;2023-10-19T08:51:11;97812.94;;;20.60;68.95
34177;BME280;20450;49.074;9.158;2023-10-19T08:53:39;97824.38;;;20.79;67.86
34177;BME280;20450;49.074;9.158;2023-10-19T08:56:07;97824.78;;;21.24;66.89
34177;BME280;20450;49.074;9.158;2023-10-19T08:58:35;97831.13;;;22.00;65.17
34177;BME280;20450;49.074;9.158;2023-10-19T09:01:02;97830.72;;;22.80;63.37
34177;BME280;20450;49.074;9.158;2023-10-19T09:03:32;97826.09;;;23.25;61.07
34177;BME280;20450;49.074;9.158;2023-10-19T09:06:01;97821.22;;;23.22;59.98
34177;BME280;20450;49.074;9.158;2023-10-19T09:08:28;97819.50;;;23.86;59.01
34177;BME280;20450;49.074;9.158;2023-10-19T09:10:55;97812.72;;;24.20;57.34
34177;BME280;20450;49.074;9.158;2023-10-19T09:13:22;97814.09;;;24.02;55.77
34177;BME280;20450;49.074;9.158;2023-10-19T09:15:51;97811.28;;;24.38;54.84
34177;BME280;20450;49.074;9.158;2023-10-19T09:18:20;97798.88;;;24.32;55.87
34177;BME280;20450;49.074;9.158;2023-10-19T09:20:50;97794.09;;;24.17;57.02
34177;BME280;20450;49.074;9.158;2023-10-19T09:23:21;97789.41;;;24.05;57.75
34177;BME280;20450;49.074;9.158;2023-10-19T09:25:49;97783.94;;;24.33;57.03
34177;BME280;20450;49.074;9.158;2023-10-19T09:28:16;97783.19;;;24.48;56.70
34177;BME280;20450;49.074;9.158;2023-10-19T09:30:44;97787.00;;;24.43;56.32
34177;BME280;20450;49.074;9.158;2023-10-19T09:33:13;97778.34;;;24.17;56.24
34177;BME280;20450;49.074;9.158;2023-10-19T09:35:41;97782.97;;;24.13;56.85
34177;BME280;20450;49.074;9.158;2023-10-19T09:38:09;97785.47;;;23.94;58.15
34177;BME280;20450;49.074;9.158;2023-10-19T09:40:37;97785.94;;;23.84;58.28
34177;BME280;20450;49.074;9.158;2023-10-19T09:43:05;97790.97;;;23.82;59.15
34177;BME280;20450;49.074;9.158;2023-10-19T09:45:41;97781.59;;;23.71;59.45
34177;BME280;20450;49.074;9.158;2023-10-19T09:48:12;97781.56;;;23.59;59.32
34177;BME280;20450;49.074;9.158;2023-10-19T09:50:40;97765.50;;;22.39;59.52
34177;BME280;20450;49.074;9.158;2023-10-19T09:53:11;97763.38;;;21.66;62.15
34177;BME280;20450;49.074;9.158;2023-10-19T09:55:40;97757.34;;;21.81;65.03
34177;BME280;20450;49.074;9.158;2023-10-19T09:58:12;97765.81;;;22.17;61.50
34177;BME280;20450;49.074;9.158;2023-10-19T10:00:44;97761.47;;;20.57;65.79
34177;BME280;20450;49.074;9.158;2023-10-19T10:06:28;97754.00;;;21.38;64.07
34177;BME280;20450;49.074;9.158;2023-10-19T10:08:59;97753.38;;;21.24;64.26
34177;BME280;20450;49.074;9.158;2023-10-19T10:11:28;97755.63;;;21.30;65.76
34177;BME280;20450;49.074;9.158;2023-10-19T10:13:56;97748.66;;;20.87;65.23
34177;BME280;20450;49.074;9.158;2023-10-19T10:16:26;97745.41;;;21.40;64.82
34177;BME280;20450;49.074;9.158;2023-10-19T10:18:58;97748.97;;;20.85;66.64
34177;BME280;20450;49.074;9.158;2023-10-19T10:21:27;97754.53;;;20.43;67.85
34177;BME280;20450;49.074;9.158;2023-10-19T10:23:58;97747.44;;;20.25;68.53
34177;BME280;20450;49.074;9.158;2023-10-19T10:26:29;97749.78;;;19.84;70.56
34177;BME280;20450;49.074;9.158;2023-10-19T10:29:12;97749.78;;;19.67;72.20
34177;BME280;20450;49.074;9.158;2023-10-19T10:31:41;97751.19;;;19.64;72.36
34177;BME280;20450;49.074;9.158;2023-10-19T10:34:12;97753.69;;;19.26;73.99
34177;BME280;20450;49.074;9.158;2023-10-19T10:37:12;97748.09;;;19.09;74.77
34177;BME280;20450;49.074;9.158;2023-10-19T10:39:42;97758.69;;;19.02;75.31
34177;BME280;20450;49.074;9.158;2023-10-19T10:42:10;97745.66;;;19.08;75.27
34177;BME280;20450;49.074;9.158;2023-10-19T10:44:39;97738.56;;;18.98;76.06
34177;BME280;20450;49.074;9.158;2023-10-19T10:47:07;97738.84;;;19.27;75.10
34177;BME280;20450;49.074;9.158;2023-10-19T10:49:49;97742.72;;;19.26;75.44
34177;BME280;20450;49.074;9.158;2023-10-19T10:52:26;97739.38;;;19.38;74.32
34177;BME280;20450;49.074;9.158;2023-10-19T10:54:56;97739.56;;;19.41;74.29
34177;BME280;20450;49.074;9.158;2023-10-19T10:57:30;97746.81;;;19.15;75.07
34177;BME280;20450;49.074;9.158;2023-10-19T11:00:03;97751.31;;;19.11;75.80
34177;BME280;20450;49.074;9.158;2023-10-19T11:02:33;97752.41;;;19.02;75.73
34177;BME280;20450;49.074;9.158;2023-10-19T11:05:02;97756.97;;;19.15;75.77
34177;BME280;20450;49.074;9.158;2023-10-19T11:07:31;97764.16;;;19.02;76.25
34177;BME280;20450;49.074;9.158;2023-10-19T11:09:59;97759.75;;;19.23;75.75
34177;BME280;20450;49.074;9.158;2023-10-19T11:12:29;97745.00;;;19.33;75.20
34177;BME280;20450;49.074;9.158;2023-10-19T11:14:57;97742.94;;;19.08;74.72
34177;BME280;20450;49.074;9.158;2023-10-19T11:17:30;97753.06;;;19.29;74.92
34177;BME280;20450;49.074;9.158;2023-10-19T11:19:58;97745.19;;;19.45;74.90
34177;BME280;20450;49.074;9.158;2023-10-19T11:22:26;97739.78;;;19.71;74.86
34177;BME280;20450;49.074;9.158;2023-10-19T11:24:54;97743.78;;;19.65;73.93
34177;BME280;20450;49.074;9.158;2023-10-19T11:27:26;97736.41;;;19.65;74.29
34177;BME280;20450;49.074;9.158;2023-10-19T11:29:55;97738.56;;;19.37;75.11
34177;BME280;20450;49.074;9.158;2023-10-19T11:32:23;97726.91;;;19.23;76.02
34177;BME280;20450;49.074;9.158;2023-10-19T11:34:52;97729.88;;;19.05;76.13
34177;BME280;20450;49.074;9.158;2023-10-19T11:37:19;97737.09;;;18.92;77.26
34177;BME280;20450;49.074;9.158;2023-10-19T11:39:47;97734.38;;;18.70;78.13
34177;BME280;20450;49.074;9.158;2023-10-19T11:42:14;97747.72;;;18.72;78.46
34177;BME280;20450;49.074;9.158;2023-10-19T11:44:43;97749.13;;;18.61;79.32
34177;BME280;20450;49.074;9.158;2023-10-19T11:47:10;97750.50;;;18.36;82.18
34177;BME280;20450;49.074;9.158;2023-10-19T11:49:37;97747.59;;;18.11;86.05
34177;BME280;20450;49.074;9.158;2023-10-19T11:52:05;97734.72;;;17.89;89.44
34177;BME280;20450;49.074;9.158;2023-10-19T11:54:33;97727.91;;;17.65;92.89
34177;BME280;20450;49.074;9.158;2023-10-19T11:57:05;97714.06;;;17.47;94.05
34177;BME280;20450;49.074;9.158;2023-10-19T11:59:32;97715.34;;;17.36;94.94
34177;BME280;20450;49.074;9.158;2023-10-19T12:02:00;97706.16;;;17.32;94.68
34177;BME280;20450;49.074;9.158;2023-10-19T12:04:28;97700.41;;;17.20;94.67
34177;BME280;20450;49.074;9.158;2023-10-19T12:06:56;97701.44;;;17.24;95.25
34177;BME280;20450;49.074;9.158;2023-10-19T12:09:24;97690.31;;;17.21;93.57
34177;BME280;20450;49.074;9.158;2023-10-19T12:11:52;97684.25;;;17.24;94.16
34177;BME280;20450;49.074;9.158;2023-10-19T12:14:19;97683.44;;;17.23;95.25
34177;BME280;20450;49.074;9.158;2023-10-19T12:16:46;97692.06;;;17.03;96.37
34177;BME280;20450;49.074;9.158;2023-10-19T12:19:15;97675.16;;;17.01;96.78
34177;BME280;20450;49.074;9.158;2023-10-19T12:21:43;97672.75;;;17.00;96.56
34177;BME280;20450;49.074;9.158;2023-10-19T12:24:10;97670.22;;;17.03;96.55
34177;BME280;20450;49.074;9.158;2023-10-19T12:26:39;97667.59;;;16.98;96.13
34177;BME280;20450;49.074;9.158;2023-10-19T12:29:06;97669.09;;;17.04;96.34
34177;BME280;20450;49.074;9.158;2023-10-19T12:31:36;97660.63;;;17.06;96.23
34177;BME280;20450;49.074;9.158;2023-10-19T12:34:05;97655.16;;;17.06;95.78
34177;BME280;20450;49.074;9.158;2023-10-19T12:36:36;97661.63;;;17.10;96.20
34177;BME280;20450;49.074;9.158;2023-10-19T12:39:04;97662.13;;;17.12;96.03
34177;BME280;20450;49.074;9.158;2023-10-19T12:41:34;97654.25;;;17.10;96.49
34177;BME280;20450;49.074;9.158;2023-10-19T12:44:03;97666.47;;;17.13;95.83
34177;BME280;20450;49.074;9.158;2023-10-19T12:46:30;97656.59;;;17.17;96.23
34177;BME280;20450;49.074;9.158;2023-10-19T12:48:59;97657.13;;;17.27;95.38
34177;BME280;20450;49.074;9.158;2023-10-19T12:51:28;97673.13;;;17.34;95.49
34177;BME280;20450;49.074;9.158;2023-10-19T12:53:56;97665.84;;;17.43;95.66
34177;BME280;20450;49.074;9.158;2023-10-19T12:56:24;97686.47;;;17.49;94.73
34177;BME280;20450;49.074;9.158;2023-10-19T12:58:50;97687.16;;;17.54;95.32
34177;BME280;20450;49.074;9.158;2023-10-19T13:01:19;97684.69;;;17.67;94.80
34177;BME280;20450;49.074;9.158;2023-10-19T13:03:47;97690.75;;;17.77;95.05
34177;BME280;20450;49.074;9.158;2023-10-19T13:06:15;97677.44;;;17.84;94.98